createdAt,value
2022-12-01T00:00:19.306Z,1013.72
2022-12-01T00:01:19.294Z,1013.65
2022-12-01T00:02:19.284Z,1013.68
2022-12-01T00:03:19.275Z,1013.7
2022-12-01T00:04:19.263Z,1013.66
2022-12-01T00:05:19.251Z,1013.66
2022-12-01T00:06:19.245Z,1013.62
2022-12-01T00:07:19.225Z,1013.63
2022-12-01T00:08:19.216Z,1013.66
2022-12-01T00:09:19.214Z,1013.66
2022-12-01T00:10:19.198Z,1013.71
2022-12-01T00:11:19.183Z,1013.71
2022-12-01T00:12:19.175Z,1013.69
2022-12-01T00:13:19.166Z,1013.68
2022-12-01T00:14:19.165Z,1013.66
2022-12-01T00:15:19.157Z,1013.7
2022-12-01T00:16:19.138Z,1013.7
2022-12-01T00:17:19.122Z,1013.67
2022-12-01T00:18:19.109Z,1013.73
2022-12-01T00:19:19.105Z,1013.64
2022-12-01T00:20:19.091Z,1013.61
2022-12-01T00:21:19.079Z,1013.64
2022-12-01T00:22:19.095Z,1013.6
2022-12-01T00:23:19.061Z,1013.63
2022-12-01T00:24:19.055Z,1013.63
2022-12-01T00:25:19.037Z,1013.65
2022-12-01T00:26:19.030Z,1013.57
2022-12-01T00:27:19.014Z,1013.59
2022-12-01T00:28:19.029Z,1013.65
2022-12-01T00:29:18.993Z,1013.67
2022-12-01T00:30:18.982Z,1013.67
2022-12-01T00:31:18.983Z,1013.63
2022-12-01T00:32:18.978Z,1013.63
2022-12-01T00:33:18.958Z,1013.6
2022-12-01T00:34:18.943Z,1013.65
2022-12-01T00:35:18.936Z,1013.59
2022-12-01T00:36:18.924Z,1013.63
2022-12-01T00:37:18.917Z,1013.7
2022-12-01T00:38:18.902Z,1013.63
2022-12-01T00:39:18.892Z,1013.63
2022-12-01T00:40:18.878Z,1013.64
2022-12-01T00:41:18.868Z,1013.63
2022-12-01T00:42:18.862Z,1013.62
2022-12-01T00:43:18.852Z,1013.64
2022-12-01T00:44:18.839Z,1013.65
2022-12-01T00:45:18.834Z,1013.67
2022-12-01T00:46:18.814Z,1013.67
2022-12-01T00:47:18.806Z,1013.65
2022-12-01T00:48:18.793Z,1013.65
2022-12-01T00:49:18.786Z,1013.66
2022-12-01T00:50:18.775Z,1013.65
2022-12-01T00:51:18.773Z,1013.68
2022-12-01T00:52:18.754Z,1013.69
2022-12-01T00:53:18.739Z,1013.65
2022-12-01T00:54:18.729Z,1013.67
2022-12-01T00:55:18.722Z,1013.69
2022-12-01T00:56:18.706Z,1013.72
2022-12-01T00:57:18.701Z,1013.7
2022-12-01T00:58:18.693Z,1013.64
2022-12-01T00:59:18.675Z,1013.72
2022-12-01T01:00:18.667Z,1013.74
2022-12-01T01:01:18.661Z,1013.68
2022-12-01T01:02:18.681Z,1013.72
2022-12-01T01:03:18.650Z,1013.75
2022-12-01T01:04:18.626Z,1013.74
2022-12-01T01:05:18.611Z,1013.76
2022-12-01T01:06:18.610Z,1013.72
2022-12-01T01:07:18.597Z,1013.77
2022-12-01T01:08:18.581Z,1013.8
2022-12-01T01:09:18.572Z,1013.77
2022-12-01T01:10:18.565Z,1013.75
2022-12-01T01:11:18.555Z,1013.77
2022-12-01T01:12:18.543Z,1013.82
2022-12-01T01:13:18.532Z,1013.79
2022-12-01T01:14:18.523Z,1013.79
2022-12-01T01:15:18.527Z,1013.85
2022-12-01T01:16:18.496Z,1013.84
2022-12-01T01:17:18.491Z,1013.87
2022-12-01T01:18:18.475Z,1013.84
2022-12-01T01:19:18.465Z,1013.91
2022-12-01T01:20:18.454Z,1013.8
2022-12-01T01:21:18.471Z,1013.87
2022-12-01T01:22:18.440Z,1013.84
2022-12-01T01:23:18.420Z,1013.9
2022-12-01T01:24:18.409Z,1013.84
2022-12-01T01:25:18.410Z,1013.9
2022-12-01T01:26:18.401Z,1013.91
2022-12-01T01:27:18.378Z,1013.92
2022-12-01T01:28:18.369Z,1013.89
2022-12-01T01:29:18.372Z,1013.93
2022-12-01T01:30:18.352Z,1013.94
2022-12-01T01:31:18.340Z,1013.93
2022-12-01T01:32:18.324Z,1013.94
2022-12-01T01:33:18.315Z,1013.97
2022-12-01T01:34:18.306Z,1013.93
2022-12-01T01:35:18.305Z,1013.91
2022-12-01T01:36:18.290Z,1013.96
2022-12-01T01:37:18.280Z,1013.92
2022-12-01T01:38:18.268Z,1013.92
2022-12-01T01:39:18.255Z,1013.97
2022-12-01T01:40:18.242Z,1013.95
2022-12-01T01:41:18.335Z,1014
2022-12-01T01:42:18.222Z,1013.98
2022-12-01T01:43:18.227Z,1014.01
2022-12-01T01:44:18.271Z,1014.01
2022-12-01T01:45:18.187Z,1013.99
2022-12-01T01:46:18.180Z,1013.99
2022-12-01T01:47:18.168Z,1013.96
2022-12-01T01:48:18.166Z,1013.97
2022-12-01T01:49:18.149Z,1014.02
2022-12-01T01:50:18.133Z,1014.01
2022-12-01T01:51:18.134Z,1014.02
2022-12-01T01:52:18.124Z,1013.97
2022-12-01T01:53:18.119Z,1014.06
2022-12-01T01:54:18.096Z,1014
2022-12-01T01:55:18.087Z,1013.97
2022-12-01T01:56:18.075Z,1013.97
2022-12-01T01:57:18.077Z,1014.01
2022-12-01T01:58:18.056Z,1014.02
2022-12-01T01:59:18.044Z,1014.02
2022-12-01T02:00:18.044Z,1014.03
2022-12-01T02:01:18.025Z,1013.98
2022-12-01T02:02:18.010Z,1013.99
2022-12-01T02:03:18.001Z,1014.04
2022-12-01T02:04:17.992Z,1014.05
2022-12-01T02:05:17.994Z,1014.08
2022-12-01T02:06:17.972Z,1014.06
2022-12-01T02:07:17.963Z,1014.11
2022-12-01T02:08:17.943Z,1014.05
2022-12-01T02:09:17.940Z,1014.07
2022-12-01T02:10:17.926Z,1014.04
2022-12-01T02:11:17.911Z,1014.01
2022-12-01T02:12:17.905Z,1014.02
2022-12-01T02:13:17.895Z,1014.03
2022-12-01T02:14:17.887Z,1014.06
2022-12-01T02:15:17.878Z,1013.99
2022-12-01T02:16:17.859Z,1014.04
2022-12-01T02:17:17.879Z,1014.04
2022-12-01T02:18:17.847Z,1014.02
2022-12-01T02:19:17.834Z,1014
2022-12-01T02:20:17.819Z,1014.03
2022-12-01T02:21:17.813Z,1013.97
2022-12-01T02:22:17.811Z,1014.03
2022-12-01T02:23:17.786Z,1014.05
2022-12-01T02:24:17.805Z,1014
2022-12-01T02:25:17.762Z,1013.95
2022-12-01T02:26:17.762Z,1013.99
2022-12-01T02:27:17.774Z,1013.94
2022-12-01T02:28:17.736Z,1014
2022-12-01T02:29:17.739Z,1014.01
2022-12-01T02:30:17.718Z,1013.99
2022-12-01T02:31:17.702Z,1014.04
2022-12-01T02:32:17.703Z,1014.02
2022-12-01T02:33:17.682Z,1013.98
2022-12-01T02:34:17.687Z,1013.96
2022-12-01T02:35:17.661Z,1013.99
2022-12-01T02:36:17.651Z,1013.97
2022-12-01T02:37:17.644Z,1014
2022-12-01T02:38:17.629Z,1014
2022-12-01T02:39:17.620Z,1013.98
2022-12-01T02:40:17.613Z,1013.97
2022-12-01T02:41:17.602Z,1014
2022-12-01T02:42:17.583Z,1013.98
2022-12-01T02:43:17.576Z,1013.98
2022-12-01T02:44:17.575Z,1013.97
2022-12-01T02:45:17.558Z,1013.93
2022-12-01T02:46:17.541Z,1013.95
2022-12-01T02:47:17.529Z,1013.96
2022-12-01T02:48:17.518Z,1013.93
2022-12-01T02:49:17.518Z,1013.86
2022-12-01T02:50:17.497Z,1013.98
2022-12-01T02:51:17.493Z,1013.98
2022-12-01T02:52:17.494Z,1013.88
2022-12-01T02:53:17.490Z,1013.9
2022-12-01T02:54:17.491Z,1013.93
2022-12-01T02:55:17.505Z,1013.93
2022-12-01T02:56:17.458Z,1013.92
2022-12-01T02:57:17.428Z,1013.89
2022-12-01T02:58:17.427Z,1013.9
2022-12-01T02:59:17.415Z,1013.92
2022-12-01T03:00:17.390Z,1013.89
2022-12-01T03:01:17.386Z,1013.89
2022-12-01T03:02:17.373Z,1013.94
2022-12-01T03:03:17.365Z,1013.88
2022-12-01T03:04:17.356Z,1013.86
2022-12-01T03:05:17.342Z,1013.88
2022-12-01T03:06:17.332Z,1013.84
2022-12-01T03:07:17.316Z,1013.85
2022-12-01T03:08:17.305Z,1013.81
2022-12-01T03:09:17.312Z,1013.86
2022-12-01T03:10:17.315Z,1013.86
2022-12-01T03:11:17.273Z,1013.85
2022-12-01T03:12:17.266Z,1013.85
2022-12-01T03:13:17.262Z,1013.85
2022-12-01T03:14:17.242Z,1013.95
2022-12-01T03:15:17.236Z,1013.87
2022-12-01T03:16:17.228Z,1013.92
2022-12-01T03:17:17.226Z,1013.87
2022-12-01T03:18:17.200Z,1013.84
2022-12-01T03:19:17.193Z,1013.83
2022-12-01T03:20:17.183Z,1013.87
2022-12-01T03:21:17.186Z,1013.91
2022-12-01T03:22:17.169Z,1013.87
2022-12-01T03:23:17.151Z,1013.91
2022-12-01T03:24:17.140Z,1013.87
2022-12-01T03:25:17.136Z,1013.93
2022-12-01T03:26:17.114Z,1013.85
2022-12-01T03:27:17.106Z,1013.82
2022-12-01T03:28:17.109Z,1013.89
2022-12-01T03:29:17.086Z,1013.88
2022-12-01T03:30:17.077Z,1013.89
2022-12-01T03:31:17.075Z,1013.9
2022-12-01T03:32:17.065Z,1013.87
2022-12-01T03:33:17.041Z,1013.91
2022-12-01T03:34:17.034Z,1013.9
2022-12-01T03:35:17.023Z,1013.87
2022-12-01T03:36:17.013Z,1013.85
2022-12-01T03:37:17.000Z,1013.91
2022-12-01T03:38:16.988Z,1013.87
2022-12-01T03:39:16.978Z,1013.92
2022-12-01T03:40:16.966Z,1013.9
2022-12-01T03:41:16.960Z,1013.87
2022-12-01T03:42:16.952Z,1013.91
2022-12-01T03:43:16.963Z,1013.85
2022-12-01T03:44:16.948Z,1013.9
2022-12-01T03:45:16.951Z,1013.87
2022-12-01T03:46:16.902Z,1013.83
2022-12-01T03:47:16.893Z,1013.82
2022-12-01T03:48:16.885Z,1013.81
2022-12-01T03:49:16.874Z,1013.85
2022-12-01T03:50:16.882Z,1013.83
2022-12-01T03:51:16.865Z,1013.84
2022-12-01T03:52:16.845Z,1013.83
2022-12-01T03:53:16.834Z,1013.85
2022-12-01T03:54:16.835Z,1013.83
2022-12-01T03:55:16.813Z,1013.85
2022-12-01T03:56:16.797Z,1013.88
2022-12-01T03:57:16.794Z,1013.88
2022-12-01T03:58:16.778Z,1013.84
2022-12-01T03:59:16.770Z,1013.88
2022-12-01T04:00:16.757Z,1013.82
2022-12-01T04:01:16.748Z,1013.87
2022-12-01T04:02:16.734Z,1013.86
2022-12-01T04:03:16.727Z,1013.85
2022-12-01T04:04:16.724Z,1013.86
2022-12-01T04:05:16.708Z,1013.87
2022-12-01T04:06:16.696Z,1013.9
2022-12-01T04:07:16.687Z,1013.89
2022-12-01T04:08:16.686Z,1013.88
2022-12-01T04:09:16.666Z,1013.89
2022-12-01T04:10:16.649Z,1013.9
2022-12-01T04:11:16.653Z,1013.9
2022-12-01T04:12:16.632Z,1013.94
2022-12-01T04:13:16.665Z,1013.95
2022-12-01T04:14:16.633Z,1013.95
2022-12-01T04:15:16.603Z,1013.93
2022-12-01T04:16:16.595Z,1013.96
2022-12-01T04:17:16.585Z,1013.96
2022-12-01T04:18:16.567Z,1013.97
2022-12-01T04:19:16.555Z,1014
2022-12-01T04:20:16.549Z,1013.95
2022-12-01T04:21:16.536Z,1013.98
2022-12-01T04:22:16.537Z,1014.04
2022-12-01T04:23:16.513Z,1014
2022-12-01T04:24:16.503Z,1013.97
2022-12-01T04:25:16.497Z,1013.99
2022-12-01T04:26:16.486Z,1014.04
2022-12-01T04:27:16.473Z,1014.01
2022-12-01T04:28:16.474Z,1014
2022-12-01T04:29:16.449Z,1014.03
2022-12-01T04:30:16.444Z,1014.04
2022-12-01T04:31:16.447Z,1014.06
2022-12-01T04:32:16.419Z,1013.99
2022-12-01T04:33:16.409Z,1014.02
2022-12-01T04:34:16.396Z,1014.02
2022-12-01T04:35:16.390Z,1014.06
2022-12-01T04:36:16.392Z,1014.01
2022-12-01T04:37:16.381Z,1014
2022-12-01T04:38:16.371Z,1013.98
2022-12-01T04:39:16.345Z,1014.05
2022-12-01T04:40:16.387Z,1014.01
2022-12-01T04:41:16.326Z,1014.05
2022-12-01T04:42:16.322Z,1013.97
2022-12-01T04:43:16.320Z,1014.05
2022-12-01T04:44:16.293Z,1014.01
2022-12-01T04:45:16.288Z,1014.02
2022-12-01T04:46:16.271Z,1013.97
2022-12-01T04:47:16.265Z,1014.02
2022-12-01T04:48:16.265Z,1014
2022-12-01T04:49:16.242Z,1014
2022-12-01T04:50:16.232Z,1013.97
2022-12-01T04:51:16.229Z,1013.98
2022-12-01T04:52:16.207Z,1013.99
2022-12-01T04:53:16.198Z,1014.02
2022-12-01T04:54:16.188Z,1013.97
2022-12-01T04:55:16.176Z,1013.96
2022-12-01T04:56:16.168Z,1014.01
2022-12-01T04:57:16.154Z,1014.01
2022-12-01T04:58:16.147Z,1014.03
2022-12-01T04:59:16.139Z,1014.02
2022-12-01T05:00:16.126Z,1013.95
2022-12-01T05:01:16.141Z,1013.99
2022-12-01T05:02:16.098Z,1013.96
2022-12-01T05:03:16.101Z,1013.97
2022-12-01T05:04:16.080Z,1013.95
2022-12-01T05:05:16.071Z,1014.01
2022-12-01T05:06:16.063Z,1014.1
2022-12-01T05:07:16.047Z,1014.04
2022-12-01T05:08:16.053Z,1013.97
2022-12-01T05:09:16.027Z,1013.99
2022-12-01T05:10:16.021Z,1014
2022-12-01T05:11:16.010Z,1013.97
2022-12-01T05:12:16.005Z,1013.97
2022-12-01T05:13:15.988Z,1014.06
2022-12-01T05:14:15.977Z,1014.07
2022-12-01T05:15:15.971Z,1014.06
2022-12-01T05:16:15.973Z,1013.96
2022-12-01T05:17:15.963Z,1014.03
2022-12-01T05:18:15.936Z,1014.09
2022-12-01T05:19:15.937Z,1014.06
2022-12-01T05:20:15.915Z,1014.13
2022-12-01T05:21:15.933Z,1014.12
2022-12-01T05:22:15.897Z,1014.09
2022-12-01T05:23:15.883Z,1014.11
2022-12-01T05:24:15.885Z,1014.12
2022-12-01T05:25:15.874Z,1014.16
2022-12-01T05:26:15.846Z,1014.12
2022-12-01T05:27:15.834Z,1014.16
2022-12-01T05:28:15.830Z,1014.15
2022-12-01T05:29:15.819Z,1014.18
2022-12-01T05:30:15.804Z,1014.22
2022-12-01T05:31:15.801Z,1014.26
2022-12-01T05:32:15.782Z,1014.17
2022-12-01T05:33:15.780Z,1014.19
2022-12-01T05:34:15.766Z,1014.28
2022-12-01T05:35:15.770Z,1014.19
2022-12-01T05:36:15.764Z,1014.26
2022-12-01T05:37:15.734Z,1014.22
2022-12-01T05:38:15.733Z,1014.23
2022-12-01T05:39:15.710Z,1014.24
2022-12-01T05:40:15.703Z,1014.29
2022-12-01T05:41:15.696Z,1014.23
2022-12-01T05:42:15.693Z,1014.28
2022-12-01T05:43:15.673Z,1014.29
2022-12-01T05:44:15.668Z,1014.32
2022-12-01T05:45:15.651Z,1014.3
2022-12-01T05:46:15.642Z,1014.34
2022-12-01T05:47:15.639Z,1014.31
2022-12-01T05:48:15.615Z,1014.31
2022-12-01T05:49:15.615Z,1014.27
2022-12-01T05:50:15.597Z,1014.3
2022-12-01T05:51:15.582Z,1014.34
2022-12-01T05:52:15.572Z,1014.31
2022-12-01T05:53:15.565Z,1014.32
2022-12-01T05:54:15.552Z,1014.25
2022-12-01T05:55:15.544Z,1014.35
2022-12-01T05:56:15.541Z,1014.34
2022-12-01T05:57:15.522Z,1014.32
2022-12-01T05:58:15.516Z,1014.33
2022-12-01T05:59:15.517Z,1014.36
2022-12-01T06:00:15.488Z,1014.33
2022-12-01T06:01:15.480Z,1014.39
2022-12-01T06:02:15.490Z,1014.36
2022-12-01T06:03:15.485Z,1014.37
2022-12-01T06:04:15.452Z,1014.4
2022-12-01T06:05:15.472Z,1014.46
2022-12-01T06:06:15.519Z,1014.49
2022-12-01T06:07:15.417Z,1014.49
2022-12-01T06:08:15.406Z,1014.46
2022-12-01T06:09:15.396Z,1014.54
2022-12-01T06:10:15.388Z,1014.45
2022-12-01T06:11:15.391Z,1014.5
2022-12-01T06:12:15.362Z,1014.51
2022-12-01T06:13:15.353Z,1014.5
2022-12-01T06:14:15.345Z,1014.52
2022-12-01T06:15:15.340Z,1014.51
2022-12-01T06:16:15.325Z,1014.54
2022-12-01T06:17:15.343Z,1014.55
2022-12-01T06:18:15.304Z,1014.55
2022-12-01T06:19:15.289Z,1014.5
2022-12-01T06:20:15.285Z,1014.54
2022-12-01T06:21:15.269Z,1014.57
2022-12-01T06:22:15.273Z,1014.52
2022-12-01T06:23:16.250Z,1014.53
2022-12-01T06:24:15.253Z,1014.53
2022-12-01T06:25:16.255Z,1014.52
2022-12-01T06:26:15.219Z,1014.54
2022-12-01T06:27:15.220Z,1014.54
2022-12-01T06:28:15.212Z,1014.5
2022-12-01T06:29:15.182Z,1014.61
2022-12-01T06:30:15.185Z,1014.61
2022-12-01T06:31:15.169Z,1014.57
2022-12-01T06:32:15.161Z,1014.61
2022-12-01T06:33:15.167Z,1014.57
2022-12-01T06:34:15.159Z,1014.6
2022-12-01T06:35:15.121Z,1014.59
2022-12-01T06:36:15.117Z,1014.54
2022-12-01T06:37:15.104Z,1014.56
2022-12-01T06:38:15.109Z,1014.51
2022-12-01T06:39:15.106Z,1014.55
2022-12-01T06:40:15.084Z,1014.61
2022-12-01T06:41:15.078Z,1014.6
2022-12-01T06:42:15.107Z,1014.53
2022-12-01T06:43:15.038Z,1014.63
2022-12-01T06:44:15.035Z,1014.6
2022-12-01T06:45:15.062Z,1014.58
2022-12-01T06:46:15.088Z,1014.53
2022-12-01T06:47:15.040Z,1014.51
2022-12-01T06:48:14.986Z,1014.53
2022-12-01T06:49:14.997Z,1014.55
2022-12-01T06:50:15.051Z,1014.51
2022-12-01T06:51:14.956Z,1014.51
2022-12-01T06:52:14.967Z,1014.54
2022-12-01T06:53:14.930Z,1014.55
2022-12-01T06:54:14.919Z,1014.51
2022-12-01T06:55:14.928Z,1014.49
2022-12-01T06:56:14.897Z,1014.62
2022-12-01T06:57:14.897Z,1014.51
2022-12-01T06:58:14.879Z,1014.6
2022-12-01T06:59:14.880Z,1014.65
2022-12-01T07:00:14.877Z,1014.63
2022-12-01T07:01:14.849Z,1014.69
2022-12-01T07:02:14.837Z,1014.69
2022-12-01T07:03:14.834Z,1014.7
2022-12-01T07:04:14.822Z,1014.73
2022-12-01T07:05:14.802Z,1014.71
2022-12-01T07:06:14.804Z,1014.73
2022-12-01T07:07:14.796Z,1014.73
2022-12-01T07:08:14.778Z,1014.71
2022-12-01T07:09:14.764Z,1014.79
2022-12-01T07:10:14.750Z,1014.8
2022-12-01T07:11:14.739Z,1014.76
2022-12-01T07:12:14.727Z,1014.75
2022-12-01T07:13:14.739Z,1014.7
2022-12-01T07:14:14.711Z,1014.78
2022-12-01T07:15:14.695Z,1014.79
2022-12-01T07:16:14.690Z,1014.82
2022-12-01T07:17:14.676Z,1014.78
2022-12-01T07:18:14.670Z,1014.74
2022-12-01T07:19:14.674Z,1014.84
2022-12-01T07:20:14.648Z,1014.83
2022-12-01T07:21:14.633Z,1014.85
2022-12-01T07:22:14.619Z,1014.94
2022-12-01T07:23:14.615Z,1014.92
2022-12-01T07:24:14.602Z,1014.86
2022-12-01T07:25:14.593Z,1014.92
2022-12-01T07:26:14.610Z,1014.91
2022-12-01T07:27:14.566Z,1014.88
2022-12-01T07:28:14.566Z,1014.88
2022-12-01T07:29:14.549Z,1014.9
2022-12-01T07:30:14.543Z,1014.86
2022-12-01T07:31:14.534Z,1014.87
2022-12-01T07:32:14.514Z,1014.86
2022-12-01T07:33:14.538Z,1014.91
2022-12-01T07:34:14.492Z,1014.93
2022-12-01T07:35:14.485Z,1014.97
2022-12-01T07:36:14.482Z,1014.93
2022-12-01T07:37:14.501Z,1014.94
2022-12-01T07:38:14.454Z,1014.98
2022-12-01T07:39:14.443Z,1014.92
2022-12-01T07:40:14.434Z,1014.99
2022-12-01T07:41:14.426Z,1015.04
2022-12-01T07:42:14.410Z,1015.04
2022-12-01T07:43:14.422Z,1014.95
2022-12-01T07:44:14.402Z,1014.95
2022-12-01T07:45:14.389Z,1015
2022-12-01T07:46:14.384Z,1014.97
2022-12-01T07:47:14.358Z,1014.96
2022-12-01T07:48:14.352Z,1014.99
2022-12-01T07:49:14.335Z,1014.99
2022-12-01T07:50:14.324Z,1014.96
2022-12-01T07:51:14.317Z,1014.95
2022-12-01T07:52:14.305Z,1014.92
2022-12-01T07:53:14.305Z,1014.94
2022-12-01T07:54:14.289Z,1015.01
2022-12-01T07:55:14.290Z,1014.97
2022-12-01T07:56:14.264Z,1014.98
2022-12-01T07:57:14.255Z,1014.98
2022-12-01T07:58:14.248Z,1014.98
2022-12-01T07:59:14.232Z,1014.94
2022-12-01T08:00:14.223Z,1014.99
2022-12-01T08:01:14.216Z,1015.01
2022-12-01T08:02:14.199Z,1015.05
2022-12-01T08:03:14.189Z,1015
2022-12-01T08:04:14.181Z,1015.03
2022-12-01T08:05:14.170Z,1015.02
2022-12-01T08:06:14.161Z,1015.06
2022-12-01T08:07:14.149Z,1015.1
2022-12-01T08:08:14.134Z,1015.06
2022-12-01T08:09:14.135Z,1015.09
2022-12-01T08:10:14.122Z,1015.07
2022-12-01T08:11:14.105Z,1015.1
2022-12-01T08:12:14.110Z,1015.08
2022-12-01T08:13:14.081Z,1015.06
2022-12-01T08:14:14.070Z,1015.04
2022-12-01T08:15:14.075Z,1015.12
2022-12-01T08:16:14.051Z,1015.1
2022-12-01T08:17:14.041Z,1015.16
2022-12-01T08:18:14.051Z,1015.19
2022-12-01T08:19:14.033Z,1015.22
2022-12-01T08:20:14.023Z,1015.17
2022-12-01T08:21:14.004Z,1015.28
2022-12-01T08:22:13.986Z,1015.28
2022-12-01T08:23:13.976Z,1015.27
2022-12-01T08:24:14.100Z,1015.25
2022-12-01T08:25:13.977Z,1015.23
2022-12-01T08:26:13.965Z,1015.24
2022-12-01T08:27:13.961Z,1015.27
2022-12-01T08:28:13.979Z,1015.25
2022-12-01T08:29:13.929Z,1015.26
2022-12-01T08:30:13.917Z,1015.35
2022-12-01T08:31:13.922Z,1015.29
2022-12-01T08:32:13.927Z,1015.31
2022-12-01T08:33:13.875Z,1015.28
2022-12-01T08:34:13.862Z,1015.37
2022-12-01T08:35:13.858Z,1015.38
2022-12-01T08:36:13.865Z,1015.41
2022-12-01T08:37:13.836Z,1015.45
2022-12-01T08:38:13.854Z,1015.42
2022-12-01T08:39:13.838Z,1015.42
2022-12-01T08:40:13.810Z,1015.44
2022-12-01T08:41:13.791Z,1015.42
2022-12-01T08:42:13.782Z,1015.45
2022-12-01T08:43:13.763Z,1015.43
2022-12-01T08:44:13.800Z,1015.49
2022-12-01T08:45:13.758Z,1015.43
2022-12-01T08:46:13.744Z,1015.49
2022-12-01T08:47:13.736Z,1015.44
2022-12-01T08:48:13.745Z,1015.45
2022-12-01T08:49:13.704Z,1015.43
2022-12-01T08:50:13.694Z,1015.5
2022-12-01T08:51:13.683Z,1015.49
2022-12-01T08:52:13.673Z,1015.45
2022-12-01T08:53:13.670Z,1015.46
2022-12-01T08:54:13.685Z,1015.51
2022-12-01T08:55:13.653Z,1015.48
2022-12-01T08:56:13.647Z,1015.53
2022-12-01T08:57:13.622Z,1015.49
2022-12-01T08:58:13.614Z,1015.49
2022-12-01T08:59:13.661Z,1015.47
2022-12-01T09:00:13.601Z,1015.55
2022-12-01T09:01:13.577Z,1015.53
2022-12-01T09:02:13.596Z,1015.53
2022-12-01T09:03:13.557Z,1015.53
2022-12-01T09:04:13.561Z,1015.56
2022-12-01T09:05:13.534Z,1015.45
2022-12-01T09:06:13.542Z,1015.54
2022-12-01T09:07:13.515Z,1015.5
2022-12-01T09:08:13.507Z,1015.53
2022-12-01T09:09:13.490Z,1015.55
2022-12-01T09:10:13.521Z,1015.51
2022-12-01T09:11:13.476Z,1015.47
2022-12-01T09:12:13.468Z,1015.49
2022-12-01T09:13:13.457Z,1015.54
2022-12-01T09:14:13.453Z,1015.55
2022-12-01T09:15:13.457Z,1015.53
2022-12-01T09:16:13.420Z,1015.52
2022-12-01T09:17:13.414Z,1015.56
2022-12-01T09:18:13.566Z,1015.53
2022-12-01T09:19:13.410Z,1015.55
2022-12-01T09:20:13.391Z,1015.59
2022-12-01T09:21:13.378Z,1015.6
2022-12-01T09:22:13.355Z,1015.61
2022-12-01T09:23:13.344Z,1015.6
2022-12-01T09:24:13.334Z,1015.57
2022-12-01T09:25:13.327Z,1015.55
2022-12-01T09:26:13.314Z,1015.57
2022-12-01T09:27:13.392Z,1015.55
2022-12-01T09:28:13.287Z,1015.53
2022-12-01T09:29:13.297Z,1015.57
2022-12-01T09:30:13.269Z,1015.52
2022-12-01T09:31:13.263Z,1015.52
2022-12-01T09:32:13.280Z,1015.57
2022-12-01T09:33:13.251Z,1015.56
2022-12-01T09:34:13.230Z,1015.54
2022-12-01T09:35:13.213Z,1015.46
2022-12-01T09:36:13.298Z,1015.57
2022-12-01T09:37:13.250Z,1015.52
2022-12-01T09:38:13.297Z,1015.54
2022-12-01T09:39:14.197Z,1015.51
2022-12-01T09:40:13.186Z,1015.51
2022-12-01T09:41:13.149Z,1015.64
2022-12-01T09:42:13.142Z,1015.56
2022-12-01T09:43:13.159Z,1015.56
2022-12-01T09:44:13.131Z,1015.61
2022-12-01T09:45:13.118Z,1015.59
2022-12-01T09:46:13.115Z,1015.64
2022-12-01T09:47:13.134Z,1015.62
2022-12-01T09:48:13.078Z,1015.57
2022-12-01T09:49:13.157Z,1015.63
2022-12-01T09:50:13.066Z,1015.59
2022-12-01T09:51:13.054Z,1015.6
2022-12-01T09:52:13.046Z,1015.58
2022-12-01T09:53:13.122Z,1015.58
2022-12-01T09:54:13.014Z,1015.51
2022-12-01T09:55:13.023Z,1015.49
2022-12-01T09:56:12.999Z,1015.59
2022-12-01T09:57:12.984Z,1015.54
2022-12-01T09:58:12.978Z,1015.58
2022-12-01T09:59:12.995Z,1015.44
2022-12-01T10:00:12.950Z,1015.43
2022-12-01T10:01:12.940Z,1015.42
2022-12-01T10:02:13.047Z,1015.43
2022-12-01T10:03:12.999Z,1015.43
2022-12-01T10:04:12.917Z,1015.38
2022-12-01T10:05:12.924Z,1015.36
2022-12-01T10:06:15.943Z,1015.4
2022-12-01T10:07:12.903Z,1015.38
2022-12-01T10:08:12.864Z,1015.37
2022-12-01T10:09:12.855Z,1015.41
2022-12-01T10:10:12.866Z,1015.4
2022-12-01T10:11:12.862Z,1015.37
2022-12-01T10:12:12.838Z,1015.38
2022-12-01T10:13:12.817Z,1015.35
2022-12-01T10:14:12.799Z,1015.42
2022-12-01T10:15:12.825Z,1015.44
2022-12-01T10:16:12.781Z,1015.45
2022-12-01T10:17:12.774Z,1015.41
2022-12-01T10:18:12.759Z,1015.39
2022-12-01T10:19:12.744Z,1015.39
2022-12-01T10:20:12.736Z,1015.42
2022-12-01T10:21:12.724Z,1015.43
2022-12-01T10:22:12.716Z,1015.38
2022-12-01T10:23:12.741Z,1015.39
2022-12-01T10:24:12.699Z,1015.38
2022-12-01T10:25:12.679Z,1015.34
2022-12-01T10:26:12.683Z,1015.36
2022-12-01T10:27:12.666Z,1015.33
2022-12-01T10:28:12.681Z,1015.3
2022-12-01T10:29:12.643Z,1015.29
2022-12-01T10:30:12.686Z,1015.35
2022-12-01T10:31:12.628Z,1015.3
2022-12-01T10:32:12.611Z,1015.3
2022-12-01T10:33:12.620Z,1015.33
2022-12-01T10:34:12.590Z,1015.29
2022-12-01T10:35:12.581Z,1015.31
2022-12-01T10:36:12.583Z,1015.29
2022-12-01T10:37:12.571Z,1015.27
2022-12-01T10:38:12.550Z,1015.23
2022-12-01T10:39:12.559Z,1015.3
2022-12-01T10:40:12.538Z,1015.26
2022-12-01T10:41:12.536Z,1015.22
2022-12-01T10:42:12.566Z,1015.23
2022-12-01T10:43:12.488Z,1015.25
2022-12-01T10:44:12.481Z,1015.26
2022-12-01T10:45:12.476Z,1015.24
2022-12-01T10:46:12.473Z,1015.27
2022-12-01T10:47:12.465Z,1015.21
2022-12-01T10:48:12.439Z,1015.16
2022-12-01T10:49:12.427Z,1015.22
2022-12-01T10:50:12.433Z,1015.18
2022-12-01T10:51:12.407Z,1015.19
2022-12-01T10:52:12.391Z,1015.13
2022-12-01T10:53:12.393Z,1015.22
2022-12-01T10:54:12.375Z,1015.22
2022-12-01T10:55:12.372Z,1015.21
2022-12-01T10:56:12.390Z,1015.21
2022-12-01T10:57:12.336Z,1015.17
2022-12-01T10:58:12.342Z,1015.22
2022-12-01T10:59:12.329Z,1015.21
2022-12-01T11:00:12.313Z,1015.23
2022-12-01T11:01:12.394Z,1015.17
2022-12-01T11:02:12.326Z,1015.24
2022-12-01T11:03:12.378Z,1015.24
2022-12-01T11:04:12.266Z,1015.23
2022-12-01T11:05:12.286Z,1015.22
2022-12-01T11:06:12.262Z,1015.21
2022-12-01T11:07:12.258Z,1015.2
2022-12-01T11:08:12.224Z,1015.24
2022-12-01T11:09:15.820Z,1015.23
2022-12-01T11:10:13.230Z,1015.2
2022-12-01T11:11:12.199Z,1015.19
2022-12-01T11:12:12.198Z,1015.17
2022-12-01T11:13:12.185Z,1015.26
2022-12-01T11:14:12.160Z,1015.23
2022-12-01T11:15:12.168Z,1015.19
2022-12-01T11:16:12.137Z,1015.22
2022-12-01T11:17:12.137Z,1015.2
2022-12-01T11:18:12.228Z,1015.16
2022-12-01T11:19:12.175Z,1015.14
2022-12-01T11:20:12.099Z,1015.16
2022-12-01T11:21:12.099Z,1015.17
2022-12-01T11:22:12.074Z,1015.17
2022-12-01T11:23:12.062Z,1015.17
2022-12-01T11:24:12.058Z,1015.15
2022-12-01T11:25:12.049Z,1015.15
2022-12-01T11:26:12.050Z,1015.19
2022-12-01T11:27:12.022Z,1015.12
2022-12-01T11:28:12.009Z,1015.1
2022-12-01T11:29:12.025Z,1015.15
2022-12-01T11:30:11.995Z,1015.17
2022-12-01T11:31:12.001Z,1015.13
2022-12-01T11:32:11.966Z,1015.14
2022-12-01T11:33:12.016Z,1015.14
2022-12-01T11:34:11.945Z,1015.18
2022-12-01T11:35:11.948Z,1015.08
2022-12-01T11:36:11.953Z,1015.15
2022-12-01T11:37:11.916Z,1015.12
2022-12-01T11:38:11.910Z,1015.1
2022-12-01T11:39:11.913Z,1015.15
2022-12-01T11:40:11.911Z,1015.06
2022-12-01T11:41:11.914Z,1015.07
2022-12-01T11:42:11.965Z,1015.09
2022-12-01T11:43:11.854Z,1015.1
2022-12-01T11:44:11.847Z,1015.06
2022-12-01T11:45:11.884Z,1015.11
2022-12-01T11:46:11.865Z,1015.11
2022-12-01T11:47:11.813Z,1015.08
2022-12-01T11:48:11.838Z,1015.12
2022-12-01T11:49:11.802Z,1015.08
2022-12-01T11:50:11.780Z,1015.07
2022-12-01T11:51:11.780Z,1015.08
2022-12-01T11:52:11.757Z,1015.06
2022-12-01T11:53:11.745Z,1015.06
2022-12-01T11:54:11.740Z,1015.1
2022-12-01T11:55:11.726Z,1015.09
2022-12-01T11:56:11.720Z,1015.06
2022-12-01T11:57:11.704Z,1015.05
2022-12-01T11:58:11.729Z,1015.07
2022-12-01T11:59:11.685Z,1015.09
2022-12-01T12:00:11.685Z,1015.05
2022-12-01T12:01:11.676Z,1015.06
2022-12-01T12:02:11.651Z,1015.06
2022-12-01T12:03:11.664Z,1015.04
2022-12-01T12:04:11.632Z,1015.12
2022-12-01T12:05:11.630Z,1015.06
2022-12-01T12:06:11.631Z,1015.01
2022-12-01T12:07:11.595Z,1015.05
2022-12-01T12:08:12.326Z,1015.01
2022-12-01T12:09:11.608Z,1015.07